Adair, Illinois
Current Conditions -  °F | °C
As of 10:35 AM on Wednesday 22 Oct 2014 (Local Time) from KMQB Reporting Station
Clear Clear  
Wind Chill: 50°   Ceiling: Unl
Heat Index: 50°   Visibility: 10mi
Dew Point: 41°   Wind: 13mph
Humidity: 72%   Direction: 140°SE
Pressure: 30.36"   Gusts: NA
Location:  40.42°N, 90.5°W
Report Text: KMQB 221535Z AUTO 14011KT 10SM CLR 10/05 A3036 RMK AO2 T01000052
Loading
Personal Weather Stations






























Interactive Weather Map New forecast layout! Learn more

10-Day Weather Forecast

Advertisements
Track Severe Weather on mobile